Weather at Soekarno-Hatta International Airport

Public forecast

Using degrees Celsius for public forecast. Weather courtesy of forecast.io.

Current aviation weather report (METAR) for Soekarno-Hatta International Airport

2024/05/28 13:30 (retrieved 17 minutes ago)

WIII 281330Z 07007KT 8000 BKN020 29/25 Q1009 NOSIG

Aviation forecast (TAF) for Soekarno-Hatta International Airport

2024/05/28 12:00 (retrieved 2 hours ago)

TAF WIII 281100Z 2812/2918 03005KT 8000 SCT020 BECMG 2815/2817 VRB03KT 5000 HZ BECMG 2901/2903 8000 NSW